Batchelor, Australia
Current Conditions -  °F | °C
As of 12:00 AM on Thursday 23 Oct 2014 (Local Time) from YPDN Reporting Station
Rain Showers Rain Showers  
Wind Chill: 81°   Ceiling: 2000
Heat Index: 85°   Visibility: 6mi
Dew Point: 73°   Wind: 10mph
Humidity: 79%   Direction: 350°N
Pressure: 29.91"   Gusts: NA
Location:  13.05°S, 131.03°E
Report Text: YPDN 221500Z 35009KT 9999 VCSH BKN020 27/23 Q1013
Loading
Personal Weather Stations






























Interactive Weather Map
Tropical Storm Tracking
New forecast layout! Learn more

10-Day Weather Forecast

Advertisements
Track Severe Weather on mobile